sensor_id;sensor_type;location;lat;lon;timestamp;P1;durP1;ratioP1;P2;durP2;ratioP2
71937;SDS011;59810;48.800;9.086;2022-07-22T00:01:30;10.80;;;5.22;;
71937;SDS011;59810;48.800;9.086;2022-07-22T00:03:55;11.47;;;5.43;;
71937;SDS011;59810;48.800;9.086;2022-07-22T00:06:20;8.60;;;5.13;;
71937;SDS011;59810;48.800;9.086;2022-07-22T00:08:46;10.47;;;5.60;;
71937;SDS011;59810;48.800;9.086;2022-07-22T00:11:11;12.57;;;5.63;;
71937;SDS011;59810;48.800;9.086;2022-07-22T00:13:37;9.37;;;5.50;;
71937;SDS011;59810;48.800;9.086;2022-07-22T00:16:02;8.03;;;5.07;;
71937;SDS011;59810;48.800;9.086;2022-07-22T00:18:28;8.75;;;5.05;;
71937;SDS011;59810;48.800;9.086;2022-07-22T00:20:54;7.90;;;4.73;;
71937;SDS011;59810;48.800;9.086;2022-07-22T00:23:20;8.32;;;4.90;;
71937;SDS011;59810;48.800;9.086;2022-07-22T00:25:45;10.53;;;5.67;;
71937;SDS011;59810;48.800;9.086;2022-07-22T00:28:10;10.60;;;5.57;;
71937;SDS011;59810;48.800;9.086;2022-07-22T00:30:36;9.23;;;4.87;;
71937;SDS011;59810;48.800;9.086;2022-07-22T00:33:01;9.43;;;5.63;;
71937;SDS011;59810;48.800;9.086;2022-07-22T00:35:30;9.10;;;5.57;;
71937;SDS011;59810;48.800;9.086;2022-07-22T00:37:56;12.47;;;5.00;;
71937;SDS011;59810;48.800;9.086;2022-07-22T00:40:21;11.00;;;5.60;;
71937;SDS011;59810;48.800;9.086;2022-07-22T00:42:49;10.20;;;5.00;;
71937;SDS011;59810;48.800;9.086;2022-07-22T00:45:15;8.20;;;5.00;;
71937;SDS011;59810;48.800;9.086;2022-07-22T00:47:40;8.50;;;5.10;;
71937;SDS011;59810;48.800;9.086;2022-07-22T00:50:06;10.70;;;5.40;;
71937;SDS011;59810;48.800;9.086;2022-07-22T00:52:32;8.77;;;5.30;;
71937;SDS011;59810;48.800;9.086;2022-07-22T00:54:58;9.00;;;5.40;;
71937;SDS011;59810;48.800;9.086;2022-07-22T00:57:24;10.15;;;5.60;;
71937;SDS011;59810;48.800;9.086;2022-07-22T00:59:49;9.63;;;5.63;;
71937;SDS011;59810;48.800;9.086;2022-07-22T01:02:15;10.83;;;5.30;;
71937;SDS011;59810;48.800;9.086;2022-07-22T01:04:40;9.43;;;5.20;;
71937;SDS011;59810;48.800;9.086;2022-07-22T01:07:06;10.20;;;5.73;;
71937;SDS011;59810;48.800;9.086;2022-07-22T01:09:31;9.20;;;5.47;;
71937;SDS011;59810;48.800;9.086;2022-07-22T01:11:56;8.93;;;5.30;;
71937;SDS011;59810;48.800;9.086;2022-07-22T01:14:22;8.75;;;5.22;;
71937;SDS011;59810;48.800;9.086;2022-07-22T01:16:47;9.50;;;5.77;;
71937;SDS011;59810;48.800;9.086;2022-07-22T01:19:12;10.37;;;5.93;;
71937;SDS011;59810;48.800;9.086;2022-07-22T01:21:38;12.20;;;5.63;;
71937;SDS011;59810;48.800;9.086;2022-07-22T01:24:04;11.20;;;5.70;;
71937;SDS011;59810;48.800;9.086;2022-07-22T01:26:29;8.95;;;5.47;;
71937;SDS011;59810;48.800;9.086;2022-07-22T01:28:55;9.77;;;5.90;;
71937;SDS011;59810;48.800;9.086;2022-07-22T01:31:20;10.40;;;6.23;;
71937;SDS011;59810;48.800;9.086;2022-07-22T01:33:46;11.20;;;5.30;;
71937;SDS011;59810;48.800;9.086;2022-07-22T01:36:11;12.20;;;6.30;;
71937;SDS011;59810;48.800;9.086;2022-07-22T01:38:37;10.85;;;6.05;;
71937;SDS011;59810;48.800;9.086;2022-07-22T01:41:05;10.20;;;6.43;;
71937;SDS011;59810;48.800;9.086;2022-07-22T01:43:30;11.18;;;6.22;;
71937;SDS011;59810;48.800;9.086;2022-07-22T01:45:56;10.13;;;6.07;;
71937;SDS011;59810;48.800;9.086;2022-07-22T01:48:22;10.00;;;5.85;;
71937;SDS011;59810;48.800;9.086;2022-07-22T01:50:48;12.20;;;5.72;;
71937;SDS011;59810;48.800;9.086;2022-07-22T01:53:14;9.83;;;6.17;;
71937;SDS011;59810;48.800;9.086;2022-07-22T01:55:42;13.10;;;6.45;;
71937;SDS011;59810;48.800;9.086;2022-07-22T01:58:13;9.77;;;5.75;;
71937;SDS011;59810;48.800;9.086;2022-07-22T02:00:38;9.07;;;5.97;;
71937;SDS011;59810;48.800;9.086;2022-07-22T02:03:06;9.45;;;6.03;;
71937;SDS011;59810;48.800;9.086;2022-07-22T02:05:31;10.37;;;6.30;;
71937;SDS011;59810;48.800;9.086;2022-07-22T02:08:01;10.50;;;6.77;;
71937;SDS011;59810;48.800;9.086;2022-07-22T02:10:31;10.25;;;6.10;;
71937;SDS011;59810;48.800;9.086;2022-07-22T02:12:59;10.80;;;6.25;;
71937;SDS011;59810;48.800;9.086;2022-07-22T02:15:25;11.90;;;5.67;;
71937;SDS011;59810;48.800;9.086;2022-07-22T02:17:51;13.73;;;6.55;;
71937;SDS011;59810;48.800;9.086;2022-07-22T02:20:17;11.45;;;6.70;;
71937;SDS011;59810;48.800;9.086;2022-07-22T02:22:42;10.30;;;6.50;;
71937;SDS011;59810;48.800;9.086;2022-07-22T02:25:08;12.53;;;6.33;;
71937;SDS011;59810;48.800;9.086;2022-07-22T02:27:34;11.50;;;6.40;;
71937;SDS011;59810;48.800;9.086;2022-07-22T02:29:59;9.77;;;6.13;;
71937;SDS011;59810;48.800;9.086;2022-07-22T02:32:27;11.07;;;6.40;;
71937;SDS011;59810;48.800;9.086;2022-07-22T02:34:52;10.87;;;6.47;;
71937;SDS011;59810;48.800;9.086;2022-07-22T02:37:20;11.40;;;6.83;;
71937;SDS011;59810;48.800;9.086;2022-07-22T02:39:46;9.80;;;6.28;;
71937;SDS011;59810;48.800;9.086;2022-07-22T02:42:11;12.57;;;6.13;;
71937;SDS011;59810;48.800;9.086;2022-07-22T02:44:36;11.35;;;6.57;;
71937;SDS011;59810;48.800;9.086;2022-07-22T02:47:02;10.67;;;6.13;;
71937;SDS011;59810;48.800;9.086;2022-07-22T02:49:27;10.47;;;6.57;;
71937;SDS011;59810;48.800;9.086;2022-07-22T02:51:53;11.00;;;7.10;;
71937;SDS011;59810;48.800;9.086;2022-07-22T02:54:18;9.30;;;6.20;;
71937;SDS011;59810;48.800;9.086;2022-07-22T02:56:43;10.27;;;6.57;;
71937;SDS011;59810;48.800;9.086;2022-07-22T02:59:09;11.17;;;6.47;;
71937;SDS011;59810;48.800;9.086;2022-07-22T03:01:34;10.17;;;6.07;;
71937;SDS011;59810;48.800;9.086;2022-07-22T03:03:59;12.27;;;6.77;;
71937;SDS011;59810;48.800;9.086;2022-07-22T03:06:27;10.48;;;6.43;;
71937;SDS011;59810;48.800;9.086;2022-07-22T03:08:52;10.37;;;6.47;;
71937;SDS011;59810;48.800;9.086;2022-07-22T03:11:21;13.77;;;6.93;;
71937;SDS011;59810;48.800;9.086;2022-07-22T03:13:49;11.43;;;6.43;;
71937;SDS011;59810;48.800;9.086;2022-07-22T03:16:14;11.07;;;6.20;;
71937;SDS011;59810;48.800;9.086;2022-07-22T03:18:39;10.60;;;6.77;;
71937;SDS011;59810;48.800;9.086;2022-07-22T03:21:05;11.07;;;6.43;;
71937;SDS011;59810;48.800;9.086;2022-07-22T03:23:30;9.53;;;5.90;;
71937;SDS011;59810;48.800;9.086;2022-07-22T03:25:56;12.13;;;6.63;;
71937;SDS011;59810;48.800;9.086;2022-07-22T03:28:22;11.35;;;5.93;;
71937;SDS011;59810;48.800;9.086;2022-07-22T03:30:47;11.13;;;6.70;;
71937;SDS011;59810;48.800;9.086;2022-07-22T03:33:13;10.43;;;6.30;;
71937;SDS011;59810;48.800;9.086;2022-07-22T03:35:38;11.73;;;6.53;;
71937;SDS011;59810;48.800;9.086;2022-07-22T03:38:04;10.47;;;6.80;;
71937;SDS011;59810;48.800;9.086;2022-07-22T03:40:29;12.52;;;6.90;;
71937;SDS011;59810;48.800;9.086;2022-07-22T03:42:54;10.70;;;6.50;;
71937;SDS011;59810;48.800;9.086;2022-07-22T03:45:20;12.53;;;7.00;;
71937;SDS011;59810;48.800;9.086;2022-07-22T03:47:45;12.17;;;6.97;;
71937;SDS011;59810;48.800;9.086;2022-07-22T03:50:11;13.00;;;7.35;;
71937;SDS011;59810;48.800;9.086;2022-07-22T03:52:36;9.73;;;6.70;;
71937;SDS011;59810;48.800;9.086;2022-07-22T03:55:02;11.30;;;6.87;;
71937;SDS011;59810;48.800;9.086;2022-07-22T03:57:30;12.85;;;7.25;;
71937;SDS011;59810;48.800;9.086;2022-07-22T03:59:56;10.70;;;6.83;;
71937;SDS011;59810;48.800;9.086;2022-07-22T04:02:21;9.68;;;5.70;;
71937;SDS011;59810;48.800;9.086;2022-07-22T04:04:46;11.67;;;7.00;;
71937;SDS011;59810;48.800;9.086;2022-07-22T04:07:12;10.27;;;7.33;;
71937;SDS011;59810;48.800;9.086;2022-07-22T04:09:37;11.70;;;7.13;;
71937;SDS011;59810;48.800;9.086;2022-07-22T04:12:03;11.93;;;7.20;;
71937;SDS011;59810;48.800;9.086;2022-07-22T04:14:28;12.30;;;7.43;;
71937;SDS011;59810;48.800;9.086;2022-07-22T04:16:54;11.57;;;6.63;;
71937;SDS011;59810;48.800;9.086;2022-07-22T04:19:19;10.88;;;6.60;;
71937;SDS011;59810;48.800;9.086;2022-07-22T04:21:44;12.90;;;7.30;;
71937;SDS011;59810;48.800;9.086;2022-07-22T04:24:10;13.30;;;7.97;;
71937;SDS011;59810;48.800;9.086;2022-07-22T04:26:35;10.93;;;6.43;;
71937;SDS011;59810;48.800;9.086;2022-07-22T04:29:01;12.30;;;7.03;;
71937;SDS011;59810;48.800;9.086;2022-07-22T04:31:29;12.88;;;7.07;;
71937;SDS011;59810;48.800;9.086;2022-07-22T04:33:55;11.67;;;7.73;;
71937;SDS011;59810;48.800;9.086;2022-07-22T04:36:20;12.70;;;7.07;;
71937;SDS011;59810;48.800;9.086;2022-07-22T04:38:47;11.43;;;6.95;;
71937;SDS011;59810;48.800;9.086;2022-07-22T04:41:12;11.23;;;7.27;;
71937;SDS011;59810;48.800;9.086;2022-07-22T04:43:37;10.80;;;7.47;;
71937;SDS011;59810;48.800;9.086;2022-07-22T04:46:03;11.00;;;6.80;;
71937;SDS011;59810;48.800;9.086;2022-07-22T04:48:28;13.43;;;8.07;;
71937;SDS011;59810;48.800;9.086;2022-07-22T04:50:59;12.65;;;7.90;;
71937;SDS011;59810;48.800;9.086;2022-07-22T04:53:26;11.80;;;6.95;;
71937;SDS011;59810;48.800;9.086;2022-07-22T04:55:51;13.80;;;7.70;;
71937;SDS011;59810;48.800;9.086;2022-07-22T04:58:17;12.23;;;7.72;;
71937;SDS011;59810;48.800;9.086;2022-07-22T05:00:42;11.40;;;7.93;;
71937;SDS011;59810;48.800;9.086;2022-07-22T05:03:08;14.63;;;8.20;;
71937;SDS011;59810;48.800;9.086;2022-07-22T05:05:33;14.60;;;7.60;;
71937;SDS011;59810;48.800;9.086;2022-07-22T05:07:59;14.35;;;8.57;;
71937;SDS011;59810;48.800;9.086;2022-07-22T05:10:24;12.93;;;8.20;;
71937;SDS011;59810;48.800;9.086;2022-07-22T05:12:50;15.23;;;7.93;;
71937;SDS011;59810;48.800;9.086;2022-07-22T05:15:15;11.65;;;7.72;;
71937;SDS011;59810;48.800;9.086;2022-07-22T05:17:41;14.30;;;8.40;;
71937;SDS011;59810;48.800;9.086;2022-07-22T05:20:06;13.40;;;8.67;;
71937;SDS011;59810;48.800;9.086;2022-07-22T05:22:32;16.65;;;8.65;;
71937;SDS011;59810;48.800;9.086;2022-07-22T05:25:00;13.30;;;8.00;;
71937;SDS011;59810;48.800;9.086;2022-07-22T05:27:25;19.90;;;9.20;;
71937;SDS011;59810;48.800;9.086;2022-07-22T05:29:50;15.10;;;8.40;;
71937;SDS011;59810;48.800;9.086;2022-07-22T05:32:16;12.93;;;8.50;;
71937;SDS011;59810;48.800;9.086;2022-07-22T05:34:41;13.27;;;8.70;;
71937;SDS011;59810;48.800;9.086;2022-07-22T05:37:07;13.40;;;8.52;;
71937;SDS011;59810;48.800;9.086;2022-07-22T05:39:32;13.23;;;8.00;;
71937;SDS011;59810;48.800;9.086;2022-07-22T05:41:57;14.90;;;9.10;;
71937;SDS011;59810;48.800;9.086;2022-07-22T05:44:23;13.97;;;9.20;;
71937;SDS011;59810;48.800;9.086;2022-07-22T05:46:48;15.63;;;9.30;;
71937;SDS011;59810;48.800;9.086;2022-07-22T05:49:14;15.23;;;8.83;;
71937;SDS011;59810;48.800;9.086;2022-07-22T05:51:39;14.40;;;8.47;;
71937;SDS011;59810;48.800;9.086;2022-07-22T05:54:04;15.80;;;9.13;;
71937;SDS011;59810;48.800;9.086;2022-07-22T05:56:30;17.27;;;9.83;;
71937;SDS011;59810;48.800;9.086;2022-07-22T05:58:56;14.52;;;8.50;;
71937;SDS011;59810;48.800;9.086;2022-07-22T06:01:21;16.20;;;9.33;;
71937;SDS011;59810;48.800;9.086;2022-07-22T06:03:47;13.45;;;8.55;;
71937;SDS011;59810;48.800;9.086;2022-07-22T06:06:12;14.97;;;9.87;;
71937;SDS011;59810;48.800;9.086;2022-07-22T06:08:38;18.03;;;9.83;;
71937;SDS011;59810;48.800;9.086;2022-07-22T06:11:06;13.30;;;9.07;;
71937;SDS011;59810;48.800;9.086;2022-07-22T06:13:31;14.27;;;8.40;;
71937;SDS011;59810;48.800;9.086;2022-07-22T06:15:59;14.00;;;8.93;;
71937;SDS011;59810;48.800;9.086;2022-07-22T06:18:25;15.90;;;10.13;;
71937;SDS011;59810;48.800;9.086;2022-07-22T06:20:50;15.50;;;10.00;;
71937;SDS011;59810;48.800;9.086;2022-07-22T06:23:15;16.10;;;9.40;;
71937;SDS011;59810;48.800;9.086;2022-07-22T06:25:41;15.87;;;9.70;;
71937;SDS011;59810;48.800;9.086;2022-07-22T06:28:07;15.85;;;9.90;;
71937;SDS011;59810;48.800;9.086;2022-07-22T06:30:35;15.33;;;9.80;;
71937;SDS011;59810;48.800;9.086;2022-07-22T06:33:00;14.43;;;9.67;;
71937;SDS011;59810;48.800;9.086;2022-07-22T06:35:26;15.60;;;9.30;;
71937;SDS011;59810;48.800;9.086;2022-07-22T06:37:51;17.63;;;9.57;;
71937;SDS011;59810;48.800;9.086;2022-07-22T06:40:17;18.02;;;9.98;;
71937;SDS011;59810;48.800;9.086;2022-07-22T06:42:43;16.03;;;10.33;;
71937;SDS011;59810;48.800;9.086;2022-07-22T06:45:08;16.27;;;9.40;;
71937;SDS011;59810;48.800;9.086;2022-07-22T06:47:33;15.87;;;9.90;;
71937;SDS011;59810;48.800;9.086;2022-07-22T06:50:03;16.50;;;9.70;;
71937;SDS011;59810;48.800;9.086;2022-07-22T06:52:30;14.55;;;9.10;;
71937;SDS011;59810;48.800;9.086;2022-07-22T06:54:55;18.00;;;10.07;;
71937;SDS011;59810;48.800;9.086;2022-07-22T06:57:20;17.77;;;10.67;;
71937;SDS011;59810;48.800;9.086;2022-07-22T06:59:46;17.87;;;10.27;;
71937;SDS011;59810;48.800;9.086;2022-07-22T07:02:13;16.97;;;9.83;;
71937;SDS011;59810;48.800;9.086;2022-07-22T07:04:39;16.35;;;9.63;;
71937;SDS011;59810;48.800;9.086;2022-07-22T07:07:04;16.57;;;9.20;;
71937;SDS011;59810;48.800;9.086;2022-07-22T07:09:30;14.27;;;8.87;;
71937;SDS011;59810;48.800;9.086;2022-07-22T07:11:55;15.80;;;10.07;;
71937;SDS011;59810;48.800;9.086;2022-07-22T07:14:20;18.27;;;9.43;;
71937;SDS011;59810;48.800;9.086;2022-07-22T07:16:46;14.32;;;8.55;;
71937;SDS011;59810;48.800;9.086;2022-07-22T07:19:11;14.90;;;9.23;;
71937;SDS011;59810;48.800;9.086;2022-07-22T07:21:37;16.13;;;10.03;;
71937;SDS011;59810;48.800;9.086;2022-07-22T07:24:02;13.63;;;7.88;;
71937;SDS011;59810;48.800;9.086;2022-07-22T07:26:28;16.07;;;7.90;;
71937;SDS011;59810;48.800;9.086;2022-07-22T07:28:53;14.70;;;9.00;;
71937;SDS011;59810;48.800;9.086;2022-07-22T07:31:19;15.93;;;8.40;;
71937;SDS011;59810;48.800;9.086;2022-07-22T07:33:44;15.18;;;8.95;;
71937;SDS011;59810;48.800;9.086;2022-07-22T07:36:09;16.70;;;8.90;;
71937;SDS011;59810;48.800;9.086;2022-07-22T07:38:37;15.40;;;9.23;;
71937;SDS011;59810;48.800;9.086;2022-07-22T07:41:05;15.00;;;8.43;;
71937;SDS011;59810;48.800;9.086;2022-07-22T07:43:30;14.77;;;8.90;;
71937;SDS011;59810;48.800;9.086;2022-07-22T07:45:56;15.40;;;9.33;;
71937;SDS011;59810;48.800;9.086;2022-07-22T07:48:21;18.57;;;9.00;;
71937;SDS011;59810;48.800;9.086;2022-07-22T07:50:46;15.50;;;9.30;;
71937;SDS011;59810;48.800;9.086;2022-07-22T07:53:14;15.43;;;8.90;;
71937;SDS011;59810;48.800;9.086;2022-07-22T07:55:41;15.35;;;9.32;;
71937;SDS011;59810;48.800;9.086;2022-07-22T07:58:07;18.58;;;8.82;;
71937;SDS011;59810;48.800;9.086;2022-07-22T08:00:33;13.57;;;8.87;;
71937;SDS011;59810;48.800;9.086;2022-07-22T08:02:59;13.68;;;8.98;;
71937;SDS011;59810;48.800;9.086;2022-07-22T08:05:27;14.07;;;8.50;;
71937;SDS011;59810;48.800;9.086;2022-07-22T08:07:55;12.63;;;8.32;;
71937;SDS011;59810;48.800;9.086;2022-07-22T08:10:33;15.33;;;8.20;;
71937;SDS011;59810;48.800;9.086;2022-07-22T08:12:59;15.95;;;9.27;;
71937;SDS011;59810;48.800;9.086;2022-07-22T08:15:27;15.60;;;8.00;;
71937;SDS011;59810;48.800;9.086;2022-07-22T08:17:54;16.13;;;8.85;;
71937;SDS011;59810;48.800;9.086;2022-07-22T08:20:20;16.70;;;8.70;;
71937;SDS011;59810;48.800;9.086;2022-07-22T08:22:45;13.37;;;8.03;;
71937;SDS011;59810;48.800;9.086;2022-07-22T08:25:13;15.93;;;8.37;;
71937;SDS011;59810;48.800;9.086;2022-07-22T08:27:41;13.18;;;8.23;;
71937;SDS011;59810;48.800;9.086;2022-07-22T08:30:07;14.17;;;8.13;;
71937;SDS011;59810;48.800;9.086;2022-07-22T08:32:33;12.18;;;6.97;;
71937;SDS011;59810;48.800;9.086;2022-07-22T08:34:59;12.35;;;7.45;;
71937;SDS011;59810;48.800;9.086;2022-07-22T08:37:25;13.17;;;7.50;;
71937;SDS011;59810;48.800;9.086;2022-07-22T08:39:50;13.60;;;8.33;;
71937;SDS011;59810;48.800;9.086;2022-07-22T08:42:20;12.68;;;7.68;;
71937;SDS011;59810;48.800;9.086;2022-07-22T08:44:47;13.07;;;8.02;;
71937;SDS011;59810;48.800;9.086;2022-07-22T08:47:12;13.20;;;7.30;;
71937;SDS011;59810;48.800;9.086;2022-07-22T08:49:38;13.17;;;8.00;;
71937;SDS011;59810;48.800;9.086;2022-07-22T08:52:05;16.23;;;7.60;;
71937;SDS011;59810;48.800;9.086;2022-07-22T08:54:30;11.93;;;7.53;;
71937;SDS011;59810;48.800;9.086;2022-07-22T08:56:56;15.40;;;9.27;;
71937;SDS011;59810;48.800;9.086;2022-07-22T08:59:21;11.67;;;7.70;;
71937;SDS011;59810;48.800;9.086;2022-07-22T09:02:03;12.07;;;8.10;;
71937;SDS011;59810;48.800;9.086;2022-07-22T09:04:49;12.77;;;7.88;;
71937;SDS011;59810;48.800;9.086;2022-07-22T09:07:22;10.73;;;7.57;;
71937;SDS011;59810;48.800;9.086;2022-07-22T09:09:51;10.90;;;7.18;;
71937;SDS011;59810;48.800;9.086;2022-07-22T09:12:16;12.03;;;7.70;;
71937;SDS011;59810;48.800;9.086;2022-07-22T09:14:49;12.00;;;7.25;;
71937;SDS011;59810;48.800;9.086;2022-07-22T09:17:28;13.38;;;7.47;;
71937;SDS011;59810;48.800;9.086;2022-07-22T09:20:01;12.87;;;7.77;;
71937;SDS011;59810;48.800;9.086;2022-07-22T09:22:34;10.65;;;7.55;;
71937;SDS011;59810;48.800;9.086;2022-07-22T09:25:35;11.60;;;7.43;;
71937;SDS011;59810;48.800;9.086;2022-07-22T09:30:32;11.10;;;7.35;;
71937;SDS011;59810;48.800;9.086;2022-07-22T09:33:03;11.23;;;7.00;;
71937;SDS011;59810;48.800;9.086;2022-07-22T09:35:29;11.40;;;7.00;;
71937;SDS011;59810;48.800;9.086;2022-07-22T09:37:56;10.05;;;7.10;;
71937;SDS011;59810;48.800;9.086;2022-07-22T09:40:32;10.38;;;6.68;;
71937;SDS011;59810;48.800;9.086;2022-07-22T09:43:01;10.40;;;6.77;;
71937;SDS011;59810;48.800;9.086;2022-07-22T09:45:29;13.88;;;7.82;;
71937;SDS011;59810;48.800;9.086;2022-07-22T09:47:56;11.57;;;7.50;;
71937;SDS011;59810;48.800;9.086;2022-07-22T09:52:53;12.25;;;7.63;;
71937;SDS011;59810;48.800;9.086;2022-07-22T09:55:20;10.37;;;7.53;;
71937;SDS011;59810;48.800;9.086;2022-07-22T09:57:48;11.70;;;7.35;;
71937;SDS011;59810;48.800;9.086;2022-07-22T10:00:19;11.05;;;7.70;;
71937;SDS011;59810;48.800;9.086;2022-07-22T10:05:23;11.60;;;7.80;;
71937;SDS011;59810;48.800;9.086;2022-07-22T10:07:53;12.70;;;7.07;;
71937;SDS011;59810;48.800;9.086;2022-07-22T10:10:23;12.40;;;7.30;;
71937;SDS011;59810;48.800;9.086;2022-07-22T10:12:50;10.77;;;7.10;;
71937;SDS011;59810;48.800;9.086;2022-07-22T10:15:17;11.32;;;7.13;;
71937;SDS011;59810;48.800;9.086;2022-07-22T10:17:44;9.82;;;7.00;;
71937;SDS011;59810;48.800;9.086;2022-07-22T10:20:13;11.53;;;7.67;;
71937;SDS011;59810;48.800;9.086;2022-07-22T10:25:08;12.83;;;7.57;;
71937;SDS011;59810;48.800;9.086;2022-07-22T10:30:16;11.63;;;7.35;;
71937;SDS011;59810;48.800;9.086;2022-07-22T10:32:43;12.68;;;8.13;;
71937;SDS011;59810;48.800;9.086;2022-07-22T10:45:24;10.60;;;7.22;;
71937;SDS011;59810;48.800;9.086;2022-07-22T10:47:58;10.53;;;6.77;;
71937;SDS011;59810;48.800;9.086;2022-07-22T10:53:06;10.20;;;7.22;;
71937;SDS011;59810;48.800;9.086;2022-07-22T10:55:36;9.80;;;6.88;;
71937;SDS011;59810;48.800;9.086;2022-07-22T11:00:56;9.70;;;6.97;;
71937;SDS011;59810;48.800;9.086;2022-07-22T11:03:23;11.07;;;7.03;;
71937;SDS011;59810;48.800;9.086;2022-07-22T11:05:50;9.60;;;7.38;;
71937;SDS011;59810;48.800;9.086;2022-07-22T11:08:15;11.13;;;7.63;;
71937;SDS011;59810;48.800;9.086;2022-07-22T11:10:50;12.23;;;7.37;;
71937;SDS011;59810;48.800;9.086;2022-07-22T11:13:35;13.75;;;7.60;;
71937;SDS011;59810;48.800;9.086;2022-07-22T11:16:21;11.47;;;7.93;;
71937;SDS011;59810;48.800;9.086;2022-07-22T11:18:50;10.73;;;6.97;;
71937;SDS011;59810;48.800;9.086;2022-07-22T11:21:31;10.38;;;6.15;;
71937;SDS011;59810;48.800;9.086;2022-07-22T11:24:02;11.70;;;6.82;;
71937;SDS011;59810;48.800;9.086;2022-07-22T11:26:37;8.50;;;6.68;;
71937;SDS011;59810;48.800;9.086;2022-07-22T11:29:05;11.40;;;6.93;;
71937;SDS011;59810;48.800;9.086;2022-07-22T11:31:31;11.52;;;6.85;;
71937;SDS011;59810;48.800;9.086;2022-07-22T11:34:10;9.07;;;7.43;;
71937;SDS011;59810;48.800;9.086;2022-07-22T11:36:41;12.85;;;7.38;;
71937;SDS011;59810;48.800;9.086;2022-07-22T11:39:13;9.30;;;6.88;;
71937;SDS011;59810;48.800;9.086;2022-07-22T11:41:41;11.25;;;6.85;;
71937;SDS011;59810;48.800;9.086;2022-07-22T11:44:09;9.02;;;6.80;;
71937;SDS011;59810;48.800;9.086;2022-07-22T11:46:38;10.67;;;7.47;;
71937;SDS011;59810;48.800;9.086;2022-07-22T11:49:05;8.13;;;6.50;;
71937;SDS011;59810;48.800;9.086;2022-07-22T11:51:32;11.25;;;7.03;;
71937;SDS011;59810;48.800;9.086;2022-07-22T11:53:59;9.63;;;7.05;;
71937;SDS011;59810;48.800;9.086;2022-07-22T11:56:25;10.23;;;7.10;;
71937;SDS011;59810;48.800;9.086;2022-07-22T11:58:53;9.73;;;6.88;;
71937;SDS011;59810;48.800;9.086;2022-07-22T12:01:21;8.23;;;6.75;;
71937;SDS011;59810;48.800;9.086;2022-07-22T12:03:52;8.55;;;6.15;;
71937;SDS011;59810;48.800;9.086;2022-07-22T12:06:27;9.95;;;6.88;;
71937;SDS011;59810;48.800;9.086;2022-07-22T12:09:02;8.50;;;7.17;;
71937;SDS011;59810;48.800;9.086;2022-07-22T12:11:30;10.52;;;6.80;;
71937;SDS011;59810;48.800;9.086;2022-07-22T12:13:55;10.20;;;6.65;;
71937;SDS011;59810;48.800;9.086;2022-07-22T12:18:52;7.45;;;5.90;;
71937;SDS011;59810;48.800;9.086;2022-07-22T12:21:19;10.53;;;6.63;;
71937;SDS011;59810;48.800;9.086;2022-07-22T12:24:29;8.52;;;6.10;;
71937;SDS011;59810;48.800;9.086;2022-07-22T12:26:50;8.85;;;5.90;;
71937;SDS011;59810;48.800;9.086;2022-07-22T12:29:16;8.75;;;5.70;;
71937;SDS011;59810;48.800;9.086;2022-07-22T12:31:43;8.52;;;5.50;;
71937;SDS011;59810;48.800;9.086;2022-07-22T12:34:12;8.03;;;5.37;;
71937;SDS011;59810;48.800;9.086;2022-07-22T12:36:38;8.18;;;5.45;;
71937;SDS011;59810;48.800;9.086;2022-07-22T12:39:25;8.95;;;5.63;;
71937;SDS011;59810;48.800;9.086;2022-07-22T12:41:52;8.00;;;5.60;;
71937;SDS011;59810;48.800;9.086;2022-07-22T12:46:44;8.70;;;5.80;;
71937;SDS011;59810;48.800;9.086;2022-07-22T12:49:11;8.38;;;5.85;;
71937;SDS011;59810;48.800;9.086;2022-07-22T12:51:37;7.87;;;5.43;;
71937;SDS011;59810;48.800;9.086;2022-07-22T12:54:02;9.20;;;5.87;;
71937;SDS011;59810;48.800;9.086;2022-07-22T12:56:28;9.40;;;5.97;;
71937;SDS011;59810;48.800;9.086;2022-07-22T12:58:53;7.90;;;5.60;;
71937;SDS011;59810;48.800;9.086;2022-07-22T13:01:19;9.10;;;6.33;;
71937;SDS011;59810;48.800;9.086;2022-07-22T13:03:44;9.20;;;5.50;;
71937;SDS011;59810;48.800;9.086;2022-07-22T13:06:09;7.97;;;5.83;;
71937;SDS011;59810;48.800;9.086;2022-07-22T13:08:37;7.60;;;5.47;;
71937;SDS011;59810;48.800;9.086;2022-07-22T13:11:02;9.88;;;6.00;;
71937;SDS011;59810;48.800;9.086;2022-07-22T13:13:28;10.57;;;6.17;;
71937;SDS011;59810;48.800;9.086;2022-07-22T13:15:55;10.55;;;6.00;;
71937;SDS011;59810;48.800;9.086;2022-07-22T13:18:20;8.87;;;5.60;;
71937;SDS011;59810;48.800;9.086;2022-07-22T13:20:46;10.13;;;6.22;;
71937;SDS011;59810;48.800;9.086;2022-07-22T13:23:12;8.65;;;5.90;;
71937;SDS011;59810;48.800;9.086;2022-07-22T13:25:37;8.27;;;5.67;;
71937;SDS011;59810;48.800;9.086;2022-07-22T13:28:03;8.63;;;5.43;;
71937;SDS011;59810;48.800;9.086;2022-07-22T13:30:29;7.78;;;5.80;;
71937;SDS011;59810;48.800;9.086;2022-07-22T13:32:56;7.93;;;6.18;;
71937;SDS011;59810;48.800;9.086;2022-07-22T13:35:21;7.90;;;5.77;;
71937;SDS011;59810;48.800;9.086;2022-07-22T13:37:49;9.32;;;5.97;;
71937;SDS011;59810;48.800;9.086;2022-07-22T13:40:14;9.17;;;6.10;;
71937;SDS011;59810;48.800;9.086;2022-07-22T13:42:42;11.55;;;6.28;;
71937;SDS011;59810;48.800;9.086;2022-07-22T13:45:07;9.67;;;5.80;;
71937;SDS011;59810;48.800;9.086;2022-07-22T13:47:35;8.00;;;6.10;;
71937;SDS011;59810;48.800;9.086;2022-07-22T13:50:00;8.50;;;5.53;;
71937;SDS011;59810;48.800;9.086;2022-07-22T13:52:26;7.77;;;5.70;;
71937;SDS011;59810;48.800;9.086;2022-07-22T13:54:51;10.13;;;5.70;;
71937;SDS011;59810;48.800;9.086;2022-07-22T13:57:17;6.80;;;5.93;;
71937;SDS011;59810;48.800;9.086;2022-07-22T13:59:42;7.43;;;5.77;;
71937;SDS011;59810;48.800;9.086;2022-07-22T14:02:10;8.60;;;5.90;;
71937;SDS011;59810;48.800;9.086;2022-07-22T14:04:36;8.53;;;6.43;;
71937;SDS011;59810;48.800;9.086;2022-07-22T14:07:01;7.87;;;6.03;;
71937;SDS011;59810;48.800;9.086;2022-07-22T14:09:26;7.63;;;5.33;;
71937;SDS011;59810;48.800;9.086;2022-07-22T14:11:52;6.40;;;5.40;;
71937;SDS011;59810;48.800;9.086;2022-07-22T14:14:20;7.30;;;5.40;;
71937;SDS011;59810;48.800;9.086;2022-07-22T14:16:45;7.82;;;6.03;;
71937;SDS011;59810;48.800;9.086;2022-07-22T14:19:12;8.33;;;5.53;;
71937;SDS011;59810;48.800;9.086;2022-07-22T14:21:40;8.23;;;6.22;;
71937;SDS011;59810;48.800;9.086;2022-07-22T14:24:07;7.32;;;5.80;;
71937;SDS011;59810;48.800;9.086;2022-07-22T14:26:34;7.13;;;5.45;;
71937;SDS011;59810;48.800;9.086;2022-07-22T14:29:00;8.20;;;6.20;;
71937;SDS011;59810;48.800;9.086;2022-07-22T14:31:26;9.33;;;6.37;;
71937;SDS011;59810;48.800;9.086;2022-07-22T14:33:51;7.18;;;5.72;;
71937;SDS011;59810;48.800;9.086;2022-07-22T14:36:17;8.30;;;6.77;;
71937;SDS011;59810;48.800;9.086;2022-07-22T14:38:43;9.03;;;6.57;;
71937;SDS011;59810;48.800;9.086;2022-07-22T14:41:08;8.40;;;6.22;;
71937;SDS011;59810;48.800;9.086;2022-07-22T14:43:34;7.43;;;6.30;;
71937;SDS011;59810;48.800;9.086;2022-07-22T14:46:00;7.55;;;6.57;;
71937;SDS011;59810;48.800;9.086;2022-07-22T14:48:27;8.15;;;6.78;;
71937;SDS011;59810;48.800;9.086;2022-07-22T14:50:53;7.07;;;6.30;;
71937;SDS011;59810;48.800;9.086;2022-07-22T14:53:18;9.47;;;6.50;;
71937;SDS011;59810;48.800;9.086;2022-07-22T14:55:44;8.20;;;6.57;;
71937;SDS011;59810;48.800;9.086;2022-07-22T14:58:09;8.33;;;6.60;;
71937;SDS011;59810;48.800;9.086;2022-07-22T15:00:34;7.38;;;6.63;;
71937;SDS011;59810;48.800;9.086;2022-07-22T15:03:00;9.23;;;7.00;;
71937;SDS011;59810;48.800;9.086;2022-07-22T15:05:28;8.10;;;7.17;;
71937;SDS011;59810;48.800;9.086;2022-07-22T15:07:53;8.95;;;7.38;;
71937;SDS011;59810;48.800;9.086;2022-07-22T15:10:19;8.53;;;6.67;;